createdAt,value
2022-12-13T00:00:39.880Z,8.25
2022-12-13T00:03:44.410Z,15.65
2022-12-13T00:06:48.484Z,23.63
2022-12-13T00:09:52.434Z,38.47
2022-12-13T00:12:56.023Z,25.88
2022-12-13T00:16:01.525Z,51.83
2022-12-13T00:19:05.463Z,69.55
2022-12-13T00:22:09.566Z,14.07
2022-12-13T00:25:13.505Z,16.65
2022-12-13T00:28:18.678Z,11.73
2022-12-13T00:31:56.824Z,18.73
2022-12-13T00:34:48.931Z,29.75
2022-12-13T00:37:52.734Z,5.40
2022-12-13T00:40:57.116Z,27.75
2022-12-13T00:44:01.520Z,16.13
2022-12-13T00:47:05.524Z,19.20
2022-12-13T00:50:09.626Z,5.80
2022-12-13T00:53:13.713Z,10.63
2022-12-13T00:56:21.820Z,18.38
2022-12-13T00:59:25.703Z,21.38
2022-12-13T01:02:29.569Z,5.30
2022-12-13T01:06:12.943Z,17.02
2022-12-13T01:08:59.886Z,28.00
2022-12-13T01:12:06.733Z,13.73
2022-12-13T01:15:10.700Z,24.45
2022-12-13T01:18:19.131Z,6.07
2022-12-13T01:21:22.437Z,8.02
2022-12-13T01:24:27.059Z,13.75
2022-12-13T01:27:30.683Z,18.80
2022-12-13T01:30:34.795Z,8.23
2022-12-13T01:33:39.345Z,12.00
2022-12-13T01:36:45.073Z,5.28
2022-12-13T01:39:48.613Z,10.53
2022-12-13T01:42:52.934Z,14.57
2022-12-13T01:45:56.657Z,8.18
2022-12-13T01:49:20.250Z,12.17
2022-12-13T01:52:25.334Z,11.07
2022-12-13T01:55:34.463Z,7.72
2022-12-13T01:58:47.896Z,18.08
2022-12-13T02:01:51.732Z,10.07
2022-12-13T02:05:00.585Z,15.15
2022-12-13T02:08:06.377Z,13.10
2022-12-13T02:11:10.949Z,24.43
2022-12-13T02:14:14.985Z,26.50
2022-12-13T02:17:28.440Z,6.03
2022-12-13T02:20:50.124Z,20.70
2022-12-13T02:24:13.689Z,25.58
2022-12-13T02:27:30.367Z,37.47
2022-12-13T02:30:38.892Z,22.88
2022-12-13T02:33:44.925Z,18.33
2022-12-13T02:37:00.482Z,21.30
2022-12-13T02:40:20.437Z,34.95
2022-12-13T02:43:48.338Z,3.33
2022-12-13T02:47:01.112Z,4.43
2022-12-13T02:50:08.226Z,7.75
2022-12-13T02:53:14.024Z,14.20
2022-12-13T02:56:18.156Z,1.60
2022-12-13T02:59:24.922Z,4.63
2022-12-13T03:02:43.853Z,5.72
2022-12-13T03:06:18.633Z,18.35
2022-12-13T03:09:47.195Z,27.27
2022-12-13T03:13:38.442Z,24.17
2022-12-13T03:16:44.967Z,21.87
2022-12-13T03:19:48.731Z,55.08
2022-12-13T03:22:53.689Z,95.00
2022-12-13T03:26:08.874Z,7.43
2022-12-13T03:29:12.362Z,4.85
2022-12-13T03:32:16.298Z,23.02
2022-12-13T03:35:23.486Z,4.85
2022-12-13T03:38:27.629Z,11.75
2022-12-13T03:41:34.495Z,11.63
2022-12-13T03:44:38.179Z,8.27
2022-12-13T03:47:41.902Z,8.27
2022-12-13T03:50:45.619Z,8.27
2022-12-13T03:53:49.017Z,19.65
2022-12-13T03:56:52.410Z,3.57
2022-12-13T03:59:56.462Z,1.65
2022-12-13T04:02:59.905Z,2.55
2022-12-13T04:06:04.939Z,10.32
2022-12-13T04:09:08.718Z,3.13
2022-12-13T04:12:30.367Z,14.38
2022-12-13T04:15:34.141Z,8.57
2022-12-13T04:18:37.435Z,9.77
2022-12-13T04:21:41.067Z,11.60
2022-12-13T04:24:44.948Z,11.13
2022-12-13T04:27:48.385Z,13.60
2022-12-13T04:30:53.001Z,16.20
2022-12-13T04:33:57.749Z,15.88
2022-12-13T04:37:01.504Z,8.43
2022-12-13T04:40:05.199Z,7.20
2022-12-13T04:43:08.491Z,6.97
2022-12-13T04:46:12.412Z,11.43
2022-12-13T04:49:15.733Z,12.20
2022-12-13T04:52:22.242Z,9.25
2022-12-13T04:55:26.920Z,7.22
2022-12-13T04:58:30.524Z,9.50
2022-12-13T05:01:35.331Z,4.32
2022-12-13T05:04:38.345Z,13.77
2022-12-13T05:07:42.166Z,13.32
2022-12-13T05:10:45.952Z,4.55
2022-12-13T05:13:49.296Z,9.43
2022-12-13T05:16:52.582Z,11.73
2022-12-13T05:19:56.351Z,7.97
2022-12-13T05:23:00.296Z,16.23
2022-12-13T05:26:04.958Z,10.35
2022-12-13T05:29:08.470Z,5.83
2022-12-13T05:32:12.237Z,7.43
2022-12-13T05:35:22.319Z,14.55
2022-12-13T05:38:27.461Z,3.38
2022-12-13T05:41:35.515Z,13.05
2022-12-13T05:44:39.157Z,8.48
2022-12-13T05:47:43.094Z,4.82
2022-12-13T05:50:46.997Z,9.00
2022-12-13T05:53:53.385Z,9.52
2022-12-13T05:56:57.326Z,9.75
2022-12-13T06:00:00.936Z,10.23
2022-12-13T06:03:04.369Z,24.00
2022-12-13T06:06:09.861Z,21.77
2022-12-13T06:09:13.545Z,17.10
2022-12-13T06:12:31.187Z,9.45
2022-12-13T06:15:36.470Z,23.88
2022-12-13T06:18:50.597Z,14.57
2022-12-13T06:21:55.966Z,1.83
2022-12-13T06:24:59.908Z,20.40
2022-12-13T06:28:03.752Z,10.57
2022-12-13T06:31:07.882Z,7.67
2022-12-13T06:34:14.307Z,7.43
2022-12-13T06:37:18.788Z,7.88
2022-12-13T06:40:23.297Z,9.63
2022-12-13T06:43:27.145Z,1.98
2022-12-13T06:46:31.232Z,12.32
2022-12-13T06:49:34.344Z,9.68
2022-12-13T06:52:37.349Z,7.50
2022-12-13T06:55:40.251Z,2.03
2022-12-13T06:58:44.114Z,4.80
2022-12-13T07:01:50.480Z,20.03
2022-12-13T07:04:54.872Z,3.58
2022-12-13T07:07:58.543Z,8.45
2022-12-13T07:11:03.605Z,9.48
2022-12-13T07:14:06.579Z,8.00
2022-12-13T07:17:11.388Z,10.18
2022-12-13T07:20:16.428Z,3.45
2022-12-13T07:23:24.492Z,7.53
2022-12-13T07:26:27.711Z,6.68
2022-12-13T07:29:31.563Z,4.05
2022-12-13T07:32:34.586Z,4.50
2022-12-13T07:35:38.187Z,12.70
2022-12-13T07:38:42.662Z,5.50
2022-12-13T07:41:49.212Z,13.20
2022-12-13T07:44:52.941Z,14.68
2022-12-13T07:47:55.809Z,19.85
2022-12-13T07:51:04.431Z,10.35
2022-12-13T07:54:09.104Z,6.83
2022-12-13T07:57:12.981Z,40.08
2022-12-13T08:00:16.302Z,32.90
2022-12-13T08:03:24.404Z,23.43
2022-12-13T08:06:28.964Z,6.43
2022-12-13T08:09:32.247Z,10.02
2022-12-13T08:12:35.184Z,25.67
2022-12-13T08:15:38.390Z,29.02
2022-12-13T08:18:41.419Z,57.72
2022-12-13T08:21:54.520Z,23.17
2022-12-13T08:24:59.723Z,23.53
2022-12-13T08:28:03.479Z,13.25
2022-12-13T08:31:12.949Z,26.30
2022-12-13T08:34:17.851Z,12.67
2022-12-13T08:37:20.835Z,11.48
2022-12-13T08:40:25.121Z,50.88
2022-12-13T08:43:28.572Z,37.10
2022-12-13T08:46:32.326Z,45.92
2022-12-13T08:49:35.471Z,23.35
2022-12-13T08:52:42.098Z,6.90
2022-12-13T08:55:45.535Z,15.43
2022-12-13T08:58:52.462Z,45.70
2022-12-13T09:01:58.772Z,32.08
2022-12-13T09:05:08.414Z,13.07
2022-12-13T09:08:23.914Z,6.20
2022-12-13T09:11:36.526Z,8.73
2022-12-13T09:14:45.647Z,26.15
2022-12-13T09:17:52.033Z,7.10
2022-12-13T09:21:11.447Z,22.75
2022-12-13T09:24:24.087Z,10.88
2022-12-13T09:27:29.524Z,13.53
2022-12-13T09:30:33.334Z,6.85
2022-12-13T09:33:40.678Z,13.57
2022-12-13T09:36:44.450Z,7.00
2022-12-13T09:39:48.378Z,36.65
2022-12-13T09:43:13.420Z,49.78
2022-12-13T09:46:44.149Z,58.85
2022-12-13T09:49:52.573Z,91.38
2022-12-13T09:52:59.797Z,119.75
2022-12-13T09:56:10.578Z,87.05
2022-12-13T09:59:15.235Z,95.27
2022-12-13T10:02:26.272Z,26.75
2022-12-13T10:05:34.080Z,62.67
2022-12-13T10:08:46.797Z,17.13
2022-12-13T10:11:52.256Z,31.73
2022-12-13T10:15:00.933Z,39.30
2022-12-13T10:18:06.943Z,36.50
2022-12-13T10:21:20.464Z,155.30
2022-12-13T10:24:37.296Z,34.58
2022-12-13T10:27:43.284Z,48.50
2022-12-13T10:30:46.690Z,29.63
2022-12-13T10:33:56.296Z,27.77
2022-12-13T10:37:00.070Z,22.48
2022-12-13T10:40:04.962Z,25.97
2022-12-13T10:43:17.905Z,61.63
2022-12-13T10:46:24.878Z,99.57
2022-12-13T10:49:34.263Z,61.58
2022-12-13T10:52:43.891Z,29.38
2022-12-13T10:55:56.105Z,51.95
2022-12-13T10:59:27.424Z,52.92
2022-12-13T11:02:42.155Z,103.70
2022-12-13T11:05:50.712Z,48.78
2022-12-13T11:08:56.751Z,33.85
2022-12-13T11:12:14.328Z,64.47
2022-12-13T11:15:24.956Z,14.23
2022-12-13T11:18:41.650Z,18.95
2022-12-13T11:21:49.769Z,14.45
2022-12-13T11:25:02.569Z,7.85
2022-12-13T11:28:37.317Z,21.50
2022-12-13T11:31:58.598Z,11.50
2022-12-13T11:35:21.586Z,11.43
2022-12-13T11:38:57.905Z,21.70
2022-12-13T11:42:26.724Z,30.27
2022-12-13T11:45:40.421Z,17.10
2022-12-13T11:48:46.529Z,34.65
2022-12-13T11:51:54.745Z,10.57
2022-12-13T11:55:04.312Z,14.63
2022-12-13T12:02:04.905Z,9.77
2022-12-13T12:05:33.563Z,39.08
2022-12-13T12:08:44.676Z,23.30
2022-12-13T12:12:01.182Z,43.60
2022-12-13T12:15:16.851Z,28.63
2022-12-13T12:18:21.020Z,18.10
2022-12-13T12:25:21.820Z,35.47
2022-12-13T12:28:45.264Z,10.45
2022-12-13T12:32:06.813Z,21.00
2022-12-13T12:35:45.917Z,7.22
2022-12-13T12:39:34.955Z,30.83
2022-12-13T12:43:11.881Z,15.80
2022-12-13T12:46:27.077Z,27.13
2022-12-13T12:49:43.728Z,23.40
2022-12-13T12:53:12.135Z,47.37
2022-12-13T12:56:46.797Z,44.75
2022-12-13T13:00:10.194Z,46.85
2022-12-13T13:03:28.915Z,52.03
2022-12-13T13:06:35.851Z,46.17
2022-12-13T13:09:41.231Z,28.13
2022-12-13T13:12:45.568Z,80.50
2022-12-13T13:15:57.806Z,95.90
2022-12-13T13:19:25.501Z,48.22
2022-12-13T13:22:44.419Z,48.33
2022-12-13T13:29:27.919Z,92.57
2022-12-13T13:32:34.356Z,134.57
2022-12-13T13:35:43.994Z,117.93
2022-12-13T13:38:54.354Z,75.55
2022-12-13T13:42:08.700Z,94.97
2022-12-13T13:45:20.568Z,43.10
2022-12-13T13:48:44.969Z,87.90
2022-12-13T13:52:26.605Z,94.00
2022-12-13T13:55:42.211Z,82.95
2022-12-13T13:59:22.907Z,80.00
2022-12-13T14:02:38.577Z,152.20
2022-12-13T14:06:12.447Z,195.65
2022-12-13T14:09:52.484Z,177.13
2022-12-13T14:13:24.406Z,225.57
2022-12-13T14:16:43.590Z,233.88
2022-12-13T14:20:32.240Z,285.80
2022-12-13T14:23:53.388Z,299.60
2022-12-13T14:27:16.072Z,320.30
2022-12-13T14:30:27.879Z,291.65
2022-12-13T14:33:33.456Z,258.33
2022-12-13T14:36:39.636Z,258.30
2022-12-13T14:39:46.026Z,239.63
2022-12-13T14:42:57.032Z,192.13
2022-12-13T14:46:06.505Z,229.50
2022-12-13T14:49:12.487Z,296.48
2022-12-13T14:52:26.883Z,323.58
2022-12-13T14:55:38.116Z,309.47
2022-12-13T14:58:55.260Z,401.00
2022-12-13T15:02:04.868Z,259.05
2022-12-13T15:05:08.063Z,230.03
2022-12-13T15:08:16.197Z,309.58
2022-12-13T15:11:19.248Z,188.60
2022-12-13T15:14:24.628Z,275.23
2022-12-13T15:17:27.975Z,350.77
2022-12-13T15:20:42.237Z,295.33
2022-12-13T15:23:52.572Z,185.05
2022-12-13T15:27:01.188Z,187.93
2022-12-13T15:30:05.517Z,317.65
2022-12-13T15:33:28.886Z,280.98
2022-12-13T15:36:39.487Z,275.10
2022-12-13T15:39:48.037Z,222.77
2022-12-13T15:42:53.121Z,289.27
2022-12-13T15:45:56.827Z,220.73
2022-12-13T15:49:05.801Z,263.95
2022-12-13T15:52:16.042Z,92.82
2022-12-13T15:55:20.665Z,229.07
2022-12-13T15:58:37.581Z,126.77
2022-12-13T16:01:42.116Z,219.90
2022-12-13T16:04:46.067Z,150.68
2022-12-13T16:07:56.417Z,192.27
2022-12-13T16:11:01.039Z,113.88
2022-12-13T16:14:28.627Z,143.15
2022-12-13T16:17:33.942Z,171.23
2022-12-13T16:20:37.605Z,210.60
2022-12-13T16:23:48.340Z,225.88
2022-12-13T16:26:53.778Z,177.82
2022-12-13T16:29:56.740Z,187.63
2022-12-13T16:36:23.427Z,292.10
2022-12-13T16:39:26.998Z,209.27
2022-12-13T16:42:30.700Z,278.48
2022-12-13T16:45:44.004Z,278.92
2022-12-13T16:48:47.936Z,276.95
2022-12-13T16:51:52.100Z,247.88
2022-12-13T16:54:55.878Z,232.32
2022-12-13T16:58:02.304Z,209.32
2022-12-13T17:01:14.913Z,185.37
2022-12-13T17:04:21.461Z,157.95
2022-12-13T17:07:25.466Z,196.77
2022-12-13T17:10:29.612Z,144.90
2022-12-13T17:13:32.685Z,179.88
2022-12-13T17:16:36.292Z,147.88
2022-12-13T17:19:39.488Z,165.50
2022-12-13T17:22:45.927Z,103.28
2022-12-13T17:25:58.591Z,83.00
2022-12-13T17:29:02.426Z,125.90
2022-12-13T17:32:07.423Z,148.20
2022-12-13T17:35:17.875Z,183.05
2022-12-13T17:38:21.475Z,139.98
2022-12-13T17:41:25.249Z,398.93
2022-12-13T17:44:29.047Z,265.10
2022-12-13T17:47:33.195Z,190.85
2022-12-13T17:50:39.033Z,193.18
2022-12-13T17:53:43.962Z,248.65
2022-12-13T17:56:48.549Z,127.90
2022-12-13T17:59:53.053Z,169.98
2022-12-13T18:02:58.092Z,191.83
2022-12-13T18:06:02.339Z,148.35
2022-12-13T18:09:06.841Z,170.48
2022-12-13T18:12:10.410Z,189.13
2022-12-13T18:15:13.446Z,126.05
2022-12-13T18:18:16.867Z,182.80
2022-12-13T18:21:20.751Z,156.20
2022-12-13T18:24:24.283Z,160.40
2022-12-13T18:27:27.410Z,126.20
2022-12-13T18:30:33.373Z,151.05
2022-12-13T18:33:37.046Z,133.97
2022-12-13T18:36:41.265Z,201.90
2022-12-13T18:39:44.591Z,170.55
2022-12-13T18:42:58.943Z,79.73
2022-12-13T18:46:05.988Z,190.43
2022-12-13T18:49:11.438Z,130.20
2022-12-13T18:52:15.251Z,88.55
2022-12-13T18:55:19.140Z,104.97
2022-12-13T18:58:23.018Z,94.15
2022-12-13T19:01:31.315Z,128.63
2022-12-13T19:04:36.241Z,113.77
2022-12-13T19:07:39.255Z,103.10
2022-12-13T19:10:46.476Z,114.88
2022-12-13T19:13:53.439Z,112.53
2022-12-13T19:16:57.431Z,67.78
2022-12-13T19:20:01.762Z,106.97
2022-12-13T19:23:05.661Z,102.03
2022-12-13T19:26:13.754Z,47.75
2022-12-13T19:29:16.997Z,116.63
2022-12-13T19:32:20.279Z,116.38
2022-12-13T19:35:24.156Z,90.07
2022-12-13T19:38:28.280Z,126.35
2022-12-13T19:41:32.750Z,68.78
2022-12-13T19:44:35.838Z,63.80
2022-12-13T19:47:38.788Z,120.07
2022-12-13T19:50:43.128Z,89.22
2022-12-13T19:53:46.899Z,35.05
2022-12-13T19:56:54.002Z,49.50
2022-12-13T19:59:58.603Z,32.38
2022-12-13T20:03:02.375Z,46.25
2022-12-13T20:06:06.681Z,50.60
2022-12-13T20:09:10.897Z,37.40
2022-12-13T20:12:13.908Z,43.95
2022-12-13T20:15:17.875Z,55.13
2022-12-13T20:18:22.000Z,96.45
2022-12-13T20:21:26.316Z,59.75
2022-12-13T20:24:30.291Z,34.15
2022-12-13T20:27:34.697Z,136.68
2022-12-13T20:30:37.720Z,93.65
2022-12-13T20:33:43.279Z,117.70
2022-12-13T20:36:48.000Z,83.77
2022-12-13T20:39:51.649Z,82.40
2022-12-13T20:42:54.595Z,84.88
2022-12-13T20:46:10.382Z,119.50
2022-12-13T20:49:13.574Z,77.32
2022-12-13T20:52:17.484Z,24.00
2022-12-13T20:55:21.539Z,22.70
2022-12-13T20:58:27.003Z,35.92
2022-12-13T21:01:35.510Z,64.47
2022-12-13T21:04:42.097Z,29.63
2022-12-13T21:08:03.478Z,107.10
2022-12-13T21:11:25.576Z,89.28
2022-12-13T21:14:29.413Z,69.88
2022-12-13T21:17:33.423Z,82.73
2022-12-13T21:20:37.429Z,65.35
2022-12-13T21:23:40.607Z,41.40
2022-12-13T21:26:44.205Z,76.30
2022-12-13T21:29:47.608Z,58.90
2022-12-13T21:32:52.862Z,94.50
2022-12-13T21:35:56.159Z,74.07
2022-12-13T21:39:02.633Z,45.03
2022-12-13T21:42:06.529Z,60.35
2022-12-13T21:45:10.056Z,17.38
2022-12-13T21:48:13.960Z,45.10
2022-12-13T21:51:20.692Z,39.53
2022-12-13T21:54:24.698Z,80.72
2022-12-13T21:57:46.857Z,64.03
2022-12-13T22:00:50.508Z,89.13
2022-12-13T22:03:54.317Z,59.83
2022-12-13T22:06:58.391Z,42.78
2022-12-13T22:10:02.915Z,60.77
2022-12-13T22:13:06.596Z,22.40
2022-12-13T22:16:11.184Z,61.65
2022-12-13T22:19:15.907Z,57.10
2022-12-13T22:22:20.937Z,70.55
2022-12-13T22:25:24.813Z,73.10
2022-12-13T22:28:30.228Z,27.77
2022-12-13T22:31:33.444Z,55.03
2022-12-13T22:34:36.361Z,41.88
2022-12-13T22:37:40.210Z,74.55
2022-12-13T22:40:43.119Z,75.93
2022-12-13T22:43:46.658Z,82.93
2022-12-13T22:46:51.860Z,74.93
2022-12-13T22:49:55.461Z,98.60
2022-12-13T22:52:59.080Z,81.80
2022-12-13T22:56:06.553Z,59.78
2022-12-13T22:59:09.942Z,58.10
2022-12-13T23:02:13.670Z,92.82
2022-12-13T23:05:17.635Z,194.25
2022-12-13T23:08:21.183Z,135.25
2022-12-13T23:11:44.697Z,164.27
2022-12-13T23:14:47.619Z,106.97
2022-12-13T23:17:51.510Z,126.15
2022-12-13T23:20:55.011Z,156.10
2022-12-13T23:24:00.235Z,143.70
2022-12-13T23:27:04.764Z,174.88
2022-12-13T23:30:08.577Z,131.40
2022-12-13T23:33:12.236Z,190.25
2022-12-13T23:36:18.166Z,163.00
2022-12-13T23:39:21.083Z,109.95
2022-12-13T23:42:24.025Z,121.03
2022-12-13T23:45:27.930Z,127.47
2022-12-13T23:48:35.270Z,109.05
2022-12-13T23:51:38.484Z,118.03
2022-12-13T23:54:42.137Z,104.50
2022-12-13T23:57:45.853Z,106.45
